sensor_id;sensor_type;location;lat;lon;timestamp;pressure;altitude;pressure_sealevel;temperature;humidity
19736;BME280;32064;49.310;8.646;2023-03-14T00:00:55;98784.47;;;14.10;78.56
19736;BME280;32064;49.310;8.646;2023-03-14T00:03:20;98789.56;;;14.11;78.43
19736;BME280;32064;49.310;8.646;2023-03-14T00:05:46;98805.78;;;14.08;78.70
19736;BME280;32064;49.310;8.646;2023-03-14T00:08:11;98808.78;;;14.05;78.98
19736;BME280;32064;49.310;8.646;2023-03-14T00:10:37;98789.91;;;14.08;78.62
19736;BME280;32064;49.310;8.646;2023-03-14T00:13:03;98794.88;;;14.11;77.95
19736;BME280;32064;49.310;8.646;2023-03-14T00:15:28;98800.81;;;14.13;77.87
19736;BME280;32064;49.310;8.646;2023-03-14T00:17:54;98800.97;;;14.12;77.63
19736;BME280;32064;49.310;8.646;2023-03-14T00:20:19;98793.38;;;14.09;79.05
19736;BME280;32064;49.310;8.646;2023-03-14T00:22:45;98807.25;;;14.11;78.47
19736;BME280;32064;49.310;8.646;2023-03-14T00:25:11;98798.31;;;14.12;77.62
19736;BME280;32064;49.310;8.646;2023-03-14T00:27:37;98793.69;;;14.14;77.81
19736;BME280;32064;49.310;8.646;2023-03-14T00:30:04;98797.97;;;14.15;77.15
19736;BME280;32064;49.310;8.646;2023-03-14T00:32:30;98794.38;;;14.16;78.41
19736;BME280;32064;49.310;8.646;2023-03-14T00:34:55;98791.72;;;14.16;78.26
19736;BME280;32064;49.310;8.646;2023-03-14T00:37:21;98777.97;;;14.21;77.94
19736;BME280;32064;49.310;8.646;2023-03-14T00:39:46;98780.94;;;14.18;77.51
19736;BME280;32064;49.310;8.646;2023-03-14T00:42:12;98779.13;;;14.18;77.92
19736;BME280;32064;49.310;8.646;2023-03-14T00:44:38;98781.63;;;14.20;77.09
19736;BME280;32064;49.310;8.646;2023-03-14T00:47:03;98763.09;;;14.20;77.50
19736;BME280;32064;49.310;8.646;2023-03-14T00:49:29;98768.53;;;14.18;77.43
19736;BME280;32064;49.310;8.646;2023-03-14T00:51:54;98774.50;;;14.20;77.17
19736;BME280;32064;49.310;8.646;2023-03-14T00:54:20;98772.19;;;14.17;77.87
19736;BME280;32064;49.310;8.646;2023-03-14T00:56:46;98771.38;;;14.17;78.57
19736;BME280;32064;49.310;8.646;2023-03-14T00:59:11;98780.81;;;14.11;77.84
19736;BME280;32064;49.310;8.646;2023-03-14T01:01:38;98784.63;;;14.08;77.98
19736;BME280;32064;49.310;8.646;2023-03-14T01:04:03;98777.34;;;14.10;77.67
19736;BME280;32064;49.310;8.646;2023-03-14T01:06:29;98784.94;;;14.13;77.35
19736;BME280;32064;49.310;8.646;2023-03-14T01:08:57;98798.31;;;14.12;77.16
19736;BME280;32064;49.310;8.646;2023-03-14T01:11:28;98800.47;;;14.17;77.78
19736;BME280;32064;49.310;8.646;2023-03-14T01:13:54;98784.13;;;14.13;77.65
19736;BME280;32064;49.310;8.646;2023-03-14T01:16:22;98774.72;;;14.10;77.47
19736;BME280;32064;49.310;8.646;2023-03-14T01:18:48;98790.72;;;14.17;78.21
19736;BME280;32064;49.310;8.646;2023-03-14T01:21:22;98780.78;;;14.19;77.82
19736;BME280;32064;49.310;8.646;2023-03-14T01:23:48;98780.59;;;14.21;78.37
19736;BME280;32064;49.310;8.646;2023-03-14T01:26:17;98763.25;;;14.18;78.29
19736;BME280;32064;49.310;8.646;2023-03-14T01:28:45;98760.09;;;14.23;78.26
19736;BME280;32064;49.310;8.646;2023-03-14T01:31:11;98757.13;;;14.26;78.09
19736;BME280;32064;49.310;8.646;2023-03-14T01:33:37;98753.50;;;14.27;78.67
19736;BME280;32064;49.310;8.646;2023-03-14T01:36:04;98756.47;;;14.24;78.40
19736;BME280;32064;49.310;8.646;2023-03-14T01:38:31;98738.63;;;14.18;78.65
19736;BME280;32064;49.310;8.646;2023-03-14T01:40:57;98740.47;;;14.17;78.80
19736;BME280;32064;49.310;8.646;2023-03-14T01:43:23;98739.16;;;14.13;78.95
19736;BME280;32064;49.310;8.646;2023-03-14T01:51:39;98716.06;;;14.07;78.70
19736;BME280;32064;49.310;8.646;2023-03-14T01:54:13;98719.53;;;14.07;79.22
19736;BME280;32064;49.310;8.646;2023-03-14T01:56:42;98695.88;;;14.06;79.25
19736;BME280;32064;49.310;8.646;2023-03-14T01:59:09;98690.78;;;14.04;79.11
19736;BME280;32064;49.310;8.646;2023-03-14T02:01:36;98678.72;;;14.02;79.24
19736;BME280;32064;49.310;8.646;2023-03-14T02:04:04;98676.78;;;13.96;79.17
19736;BME280;32064;49.310;8.646;2023-03-14T02:06:54;98675.94;;;13.95;79.36
19736;BME280;32064;49.310;8.646;2023-03-14T02:09:22;98662.72;;;13.95;79.44
19736;BME280;32064;49.310;8.646;2023-03-14T02:11:47;98664.72;;;13.93;79.33
19736;BME280;32064;49.310;8.646;2023-03-14T02:14:22;98661.22;;;13.92;79.70
19736;BME280;32064;49.310;8.646;2023-03-14T02:16:50;98678.44;;;13.88;79.29
19736;BME280;32064;49.310;8.646;2023-03-14T02:19:19;98678.28;;;13.90;78.31
19736;BME280;32064;49.310;8.646;2023-03-14T02:21:55;98665.69;;;13.92;78.24
19736;BME280;32064;49.310;8.646;2023-03-14T02:24:38;98676.28;;;13.92;78.47
19736;BME280;32064;49.310;8.646;2023-03-14T02:27:20;98677.97;;;13.85;79.16
19736;BME280;32064;49.310;8.646;2023-03-14T02:29:58;98669.84;;;13.86;78.88
19736;BME280;32064;49.310;8.646;2023-03-14T02:32:26;98664.59;;;13.78;79.34
19736;BME280;32064;49.310;8.646;2023-03-14T02:34:55;98654.88;;;13.79;78.46
19736;BME280;32064;49.310;8.646;2023-03-14T02:37:24;98645.47;;;13.76;79.20
19736;BME280;32064;49.310;8.646;2023-03-14T02:39:52;98640.66;;;13.80;79.04
19736;BME280;32064;49.310;8.646;2023-03-14T02:42:18;98646.94;;;13.79;79.53
19736;BME280;32064;49.310;8.646;2023-03-14T02:47:34;98657.19;;;13.74;79.30
19736;BME280;32064;49.310;8.646;2023-03-14T02:50:09;98659.34;;;13.70;80.09
19736;BME280;32064;49.310;8.646;2023-03-14T02:52:34;98655.06;;;13.69;80.29
19736;BME280;32064;49.310;8.646;2023-03-14T02:55:00;98640.72;;;13.63;80.26
19736;BME280;32064;49.310;8.646;2023-03-14T02:57:25;98636.28;;;13.56;80.94
19736;BME280;32064;49.310;8.646;2023-03-14T02:59:51;98643.88;;;13.59;79.57
19736;BME280;32064;49.310;8.646;2023-03-14T03:02:16;98643.53;;;13.62;80.52
19736;BME280;32064;49.310;8.646;2023-03-14T03:04:42;98646.66;;;13.65;79.77
19736;BME280;32064;49.310;8.646;2023-03-14T03:07:07;98641.72;;;13.62;80.23
19736;BME280;32064;49.310;8.646;2023-03-14T03:09:33;98653.44;;;13.60;80.47
19736;BME280;32064;49.310;8.646;2023-03-14T03:11:58;98643.03;;;13.58;79.66
19736;BME280;32064;49.310;8.646;2023-03-14T03:14:24;98623.38;;;13.61;80.07
19736;BME280;32064;49.310;8.646;2023-03-14T03:16:49;98625.38;;;13.59;79.44
19736;BME280;32064;49.310;8.646;2023-03-14T03:19:15;98622.41;;;13.62;80.22
19736;BME280;32064;49.310;8.646;2023-03-14T03:21:41;98621.06;;;13.58;79.17
19736;BME280;32064;49.310;8.646;2023-03-14T03:24:06;98611.50;;;13.57;78.66
19736;BME280;32064;49.310;8.646;2023-03-14T03:26:34;98603.41;;;13.58;79.14
19736;BME280;32064;49.310;8.646;2023-03-14T03:28:59;98606.38;;;13.55;78.75
19736;BME280;32064;49.310;8.646;2023-03-14T03:31:25;98598.66;;;13.54;79.44
19736;BME280;32064;49.310;8.646;2023-03-14T03:33:50;98586.41;;;13.53;79.70
19736;BME280;32064;49.310;8.646;2023-03-14T03:36:20;98585.59;;;13.52;78.94
19736;BME280;32064;49.310;8.646;2023-03-14T03:38:46;98571.06;;;13.56;78.48
19736;BME280;32064;49.310;8.646;2023-03-14T03:41:12;98565.94;;;13.55;78.22
19736;BME280;32064;49.310;8.646;2023-03-14T03:43:37;98569.75;;;13.52;78.59
19736;BME280;32064;49.310;8.646;2023-03-14T03:46:03;98562.16;;;13.49;78.77
19736;BME280;32064;49.310;8.646;2023-03-14T03:48:30;98566.16;;;13.45;78.70
19736;BME280;32064;49.310;8.646;2023-03-14T03:50:55;98567.47;;;13.41;78.59
19736;BME280;32064;49.310;8.646;2023-03-14T03:53:21;98565.84;;;13.40;79.19
19736;BME280;32064;49.310;8.646;2023-03-14T03:55:46;98556.75;;;13.42;78.22
19736;BME280;32064;49.310;8.646;2023-03-14T03:58:11;98557.91;;;13.40;78.79
19736;BME280;32064;49.310;8.646;2023-03-14T04:00:37;98557.72;;;13.41;78.42
19736;BME280;32064;49.310;8.646;2023-03-14T04:03:04;98572.75;;;13.41;77.57
19736;BME280;32064;49.310;8.646;2023-03-14T04:05:29;98564.19;;;13.39;77.34
19736;BME280;32064;49.310;8.646;2023-03-14T04:07:55;98559.78;;;13.31;78.69
19736;BME280;32064;49.310;8.646;2023-03-14T04:10:20;98560.09;;;13.36;76.91
19736;BME280;32064;49.310;8.646;2023-03-14T04:12:45;98549.53;;;13.36;77.87
19736;BME280;32064;49.310;8.646;2023-03-14T04:15:11;98552.31;;;13.35;77.30
19736;BME280;32064;49.310;8.646;2023-03-14T04:17:36;98550.66;;;13.42;77.04
19736;BME280;32064;49.310;8.646;2023-03-14T04:20:02;98556.75;;;13.42;76.23
19736;BME280;32064;49.310;8.646;2023-03-14T04:22:28;98549.81;;;13.41;76.95
19736;BME280;32064;49.310;8.646;2023-03-14T04:24:53;98545.53;;;13.40;76.54
19736;BME280;32064;49.310;8.646;2023-03-14T04:27:18;98553.31;;;13.42;76.83
19736;BME280;32064;49.310;8.646;2023-03-14T04:29:44;98546.56;;;13.31;76.68
19736;BME280;32064;49.310;8.646;2023-03-14T04:32:10;98550.47;;;13.43;76.40
19736;BME280;32064;49.310;8.646;2023-03-14T04:34:35;98540.91;;;13.42;75.76
19736;BME280;32064;49.310;8.646;2023-03-14T04:37:00;98542.72;;;13.42;76.20
19736;BME280;32064;49.310;8.646;2023-03-14T04:39:26;98541.75;;;13.35;75.10
19736;BME280;32064;49.310;8.646;2023-03-14T04:41:51;98540.94;;;13.34;75.80
19736;BME280;32064;49.310;8.646;2023-03-14T04:44:17;98524.56;;;13.39;75.26
19736;BME280;32064;49.310;8.646;2023-03-14T04:46:43;98526.72;;;13.35;74.95
19736;BME280;32064;49.310;8.646;2023-03-14T04:49:08;98511.09;;;13.25;74.45
19736;BME280;32064;49.310;8.646;2023-03-14T04:51:33;98521.97;;;13.31;73.54
19736;BME280;32064;49.310;8.646;2023-03-14T04:53:59;98520.78;;;13.33;74.79
19736;BME280;32064;49.310;8.646;2023-03-14T04:56:24;98519.34;;;13.31;74.03
19736;BME280;32064;49.310;8.646;2023-03-14T04:58:50;98516.38;;;13.25;74.45
19736;BME280;32064;49.310;8.646;2023-03-14T05:01:16;98528.59;;;13.27;73.46
19736;BME280;32064;49.310;8.646;2023-03-14T05:03:41;98513.06;;;13.23;73.52
19736;BME280;32064;49.310;8.646;2023-03-14T05:06:07;98510.41;;;13.32;73.96
19736;BME280;32064;49.310;8.646;2023-03-14T05:08:32;98507.06;;;13.38;72.58
19736;BME280;32064;49.310;8.646;2023-03-14T05:10:57;98497.81;;;13.42;72.69
19736;BME280;32064;49.310;8.646;2023-03-14T05:13:24;98509.03;;;13.44;73.21
19736;BME280;32064;49.310;8.646;2023-03-14T05:15:49;98509.34;;;13.49;72.93
19736;BME280;32064;49.310;8.646;2023-03-14T05:18:16;98520.91;;;13.48;73.11
19736;BME280;32064;49.310;8.646;2023-03-14T05:20:41;98529.19;;;13.45;72.59
19736;BME280;32064;49.310;8.646;2023-03-14T05:23:09;98527.66;;;13.51;72.54
19736;BME280;32064;49.310;8.646;2023-03-14T05:25:35;98525.50;;;13.54;72.55
19736;BME280;32064;49.310;8.646;2023-03-14T05:28:00;98523.53;;;13.48;72.62
19736;BME280;32064;49.310;8.646;2023-03-14T05:30:26;98536.41;;;13.51;71.88
19736;BME280;32064;49.310;8.646;2023-03-14T05:32:53;98529.66;;;13.48;71.77
19736;BME280;32064;49.310;8.646;2023-03-14T05:35:19;98523.19;;;13.51;71.96
19736;BME280;32064;49.310;8.646;2023-03-14T05:37:44;98523.66;;;13.55;71.51
19736;BME280;32064;49.310;8.646;2023-03-14T05:40:10;98519.75;;;13.51;71.69
19736;BME280;32064;49.310;8.646;2023-03-14T05:42:36;98514.25;;;13.52;71.80
19736;BME280;32064;49.310;8.646;2023-03-14T05:45:01;98512.28;;;13.54;72.00
19736;BME280;32064;49.310;8.646;2023-03-14T05:47:27;98519.50;;;13.60;71.47
19736;BME280;32064;49.310;8.646;2023-03-14T05:49:53;98505.63;;;13.58;72.48
19736;BME280;32064;49.310;8.646;2023-03-14T05:52:18;98502.38;;;13.56;71.10
19736;BME280;32064;49.310;8.646;2023-03-14T05:54:43;98494.97;;;13.52;72.22
19736;BME280;32064;49.310;8.646;2023-03-14T05:57:09;98498.22;;;13.62;71.47
19736;BME280;32064;49.310;8.646;2023-03-14T05:59:34;98489.44;;;13.61;71.59
19736;BME280;32064;49.310;8.646;2023-03-14T06:02:00;98496.38;;;13.62;71.55
19736;BME280;32064;49.310;8.646;2023-03-14T06:04:25;98497.31;;;13.69;71.21
19736;BME280;32064;49.310;8.646;2023-03-14T06:06:50;98487.56;;;13.70;70.88
19736;BME280;32064;49.310;8.646;2023-03-14T06:09:16;98495.03;;;13.66;71.52
19736;BME280;32064;49.310;8.646;2023-03-14T06:11:41;98496.69;;;13.67;70.82
19736;BME280;32064;49.310;8.646;2023-03-14T06:14:07;98495.03;;;13.66;71.07
19736;BME280;32064;49.310;8.646;2023-03-14T06:16:33;98501.44;;;13.72;70.33
19736;BME280;32064;49.310;8.646;2023-03-14T06:18:58;98493.50;;;13.72;71.13
19736;BME280;32064;49.310;8.646;2023-03-14T06:21:23;98506.72;;;13.72;70.78
19736;BME280;32064;49.310;8.646;2023-03-14T06:23:49;98488.69;;;13.76;70.89
19736;BME280;32064;49.310;8.646;2023-03-14T06:26:14;98505.19;;;13.78;70.11
19736;BME280;32064;49.310;8.646;2023-03-14T06:28:40;98511.50;;;13.77;69.53
19736;BME280;32064;49.310;8.646;2023-03-14T06:31:05;98504.22;;;13.79;70.22
19736;BME280;32064;49.310;8.646;2023-03-14T06:33:31;98503.66;;;13.83;70.43
19736;BME280;32064;49.310;8.646;2023-03-14T06:35:56;98502.00;;;13.90;70.20
19736;BME280;32064;49.310;8.646;2023-03-14T06:38:22;98503.47;;;13.93;69.97
19736;BME280;32064;49.310;8.646;2023-03-14T06:40:47;98503.63;;;13.91;70.18
19736;BME280;32064;49.310;8.646;2023-03-14T06:43:13;98505.09;;;13.94;70.45
19736;BME280;32064;49.310;8.646;2023-03-14T06:45:38;98496.81;;;13.97;70.08
19736;BME280;32064;49.310;8.646;2023-03-14T06:48:03;98493.81;;;14.00;69.99
19736;BME280;32064;49.310;8.646;2023-03-14T06:50:29;98512.25;;;14.08;69.70
19736;BME280;32064;49.310;8.646;2023-03-14T06:52:54;98498.88;;;14.10;70.41
19736;BME280;32064;49.310;8.646;2023-03-14T06:55:20;98501.88;;;14.07;69.66
19736;BME280;32064;49.310;8.646;2023-03-14T06:57:46;98499.84;;;14.09;69.28
19736;BME280;32064;49.310;8.646;2023-03-14T07:00:12;98503.50;;;14.08;69.32
19736;BME280;32064;49.310;8.646;2023-03-14T07:02:38;98497.03;;;14.10;70.49
19736;BME280;32064;49.310;8.646;2023-03-14T07:05:04;98495.38;;;14.09;69.88
19736;BME280;32064;49.310;8.646;2023-03-14T07:07:30;98500.97;;;14.14;69.98
19736;BME280;32064;49.310;8.646;2023-03-14T07:09:55;98494.41;;;14.10;69.95
19736;BME280;32064;49.310;8.646;2023-03-14T07:12:21;98491.91;;;14.09;70.07
19736;BME280;32064;49.310;8.646;2023-03-14T07:14:46;98495.50;;;14.16;69.51
19736;BME280;32064;49.310;8.646;2023-03-14T07:17:11;98497.50;;;14.14;70.16
19736;BME280;32064;49.310;8.646;2023-03-14T07:19:37;98496.91;;;14.04;70.02
19736;BME280;32064;49.310;8.646;2023-03-14T07:22:04;98504.97;;;14.10;70.33
19736;BME280;32064;49.310;8.646;2023-03-14T07:24:29;98512.25;;;14.08;70.32
19736;BME280;32064;49.310;8.646;2023-03-14T07:26:55;98505.94;;;14.09;70.23
19736;BME280;32064;49.310;8.646;2023-03-14T07:29:20;98513.38;;;14.14;69.60
19736;BME280;32064;49.310;8.646;2023-03-14T07:31:46;98510.00;;;14.20;69.55
19736;BME280;32064;49.310;8.646;2023-03-14T07:34:11;98506.38;;;14.21;70.06
19736;BME280;32064;49.310;8.646;2023-03-14T07:36:37;98511.31;;;14.24;69.26
19736;BME280;32064;49.310;8.646;2023-03-14T07:39:02;98508.31;;;14.27;68.29
19736;BME280;32064;49.310;8.646;2023-03-14T07:41:29;98507.06;;;14.38;68.57
19736;BME280;32064;49.310;8.646;2023-03-14T07:43:55;98501.16;;;14.51;69.08
19736;BME280;32064;49.310;8.646;2023-03-14T07:46:20;98503.91;;;14.57;69.11
19736;BME280;32064;49.310;8.646;2023-03-14T07:48:46;98506.19;;;14.60;68.56
19736;BME280;32064;49.310;8.646;2023-03-14T07:51:11;98507.22;;;14.74;68.43
19736;BME280;32064;49.310;8.646;2023-03-14T07:53:36;98501.56;;;14.77;67.83
19736;BME280;32064;49.310;8.646;2023-03-14T07:56:02;98507.50;;;14.79;68.10
19736;BME280;32064;49.310;8.646;2023-03-14T07:58:27;98512.59;;;14.66;68.01
19736;BME280;32064;49.310;8.646;2023-03-14T08:00:53;98507.41;;;14.73;68.25
19736;BME280;32064;49.310;8.646;2023-03-14T08:03:18;98512.25;;;14.69;68.91
19736;BME280;32064;49.310;8.646;2023-03-14T08:05:47;98507.06;;;14.76;68.11
19736;BME280;32064;49.310;8.646;2023-03-14T08:08:13;98518.00;;;14.73;68.40
19736;BME280;32064;49.310;8.646;2023-03-14T08:10:38;98515.91;;;14.83;67.73
19736;BME280;32064;49.310;8.646;2023-03-14T08:13:04;98524.50;;;14.85;67.66
19736;BME280;32064;49.310;8.646;2023-03-14T08:15:30;98510.06;;;14.88;67.70
19736;BME280;32064;49.310;8.646;2023-03-14T08:17:56;98514.91;;;14.99;67.58
19736;BME280;32064;49.310;8.646;2023-03-14T08:20:24;98512.06;;;15.15;67.51
19736;BME280;32064;49.310;8.646;2023-03-14T08:22:50;98507.16;;;15.12;67.14
19736;BME280;32064;49.310;8.646;2023-03-14T08:25:16;98510.88;;;15.18;66.46
19736;BME280;32064;49.310;8.646;2023-03-14T08:27:42;98506.69;;;15.23;66.54
19736;BME280;32064;49.310;8.646;2023-03-14T08:30:10;98501.38;;;15.75;65.06
19736;BME280;32064;49.310;8.646;2023-03-14T08:32:36;98495.63;;;15.92;63.80
19736;BME280;32064;49.310;8.646;2023-03-14T08:35:01;98492.81;;;16.44;62.65
19736;BME280;32064;49.310;8.646;2023-03-14T08:37:27;98507.31;;;18.53;57.86
19736;BME280;32064;49.310;8.646;2023-03-14T08:39:52;98507.84;;;19.15;55.83
19736;BME280;32064;49.310;8.646;2023-03-14T08:42:18;98500.28;;;18.99;56.75
19736;BME280;32064;49.310;8.646;2023-03-14T08:44:44;98522.88;;;18.10;58.14
19736;BME280;32064;49.310;8.646;2023-03-14T08:47:09;98516.28;;;17.38;61.39
19736;BME280;32064;49.310;8.646;2023-03-14T08:49:35;98509.09;;;16.90;61.48
19736;BME280;32064;49.310;8.646;2023-03-14T08:52:04;98529.34;;;16.98;59.92
19736;BME280;32064;49.310;8.646;2023-03-14T08:54:30;98528.44;;;16.84;61.81
19736;BME280;32064;49.310;8.646;2023-03-14T08:56:56;98544.72;;;16.74;61.80
19736;BME280;32064;49.310;8.646;2023-03-14T08:59:22;98541.81;;;17.80;60.30
19736;BME280;32064;49.310;8.646;2023-03-14T09:01:47;98547.13;;;17.80;60.83
19736;BME280;32064;49.310;8.646;2023-03-14T09:04:13;98550.88;;;17.92;60.27
19736;BME280;32064;49.310;8.646;2023-03-14T09:06:39;98551.94;;;17.57;61.12
19736;BME280;32064;49.310;8.646;2023-03-14T09:09:05;98557.81;;;17.04;61.23
19736;BME280;32064;49.310;8.646;2023-03-14T09:11:31;98564.41;;;16.80;63.09
19736;BME280;32064;49.310;8.646;2023-03-14T09:13:56;98566.44;;;16.56;62.02
19736;BME280;32064;49.310;8.646;2023-03-14T09:16:22;98575.53;;;16.47;63.87
19736;BME280;32064;49.310;8.646;2023-03-14T09:18:47;98575.72;;;16.24;63.61
19736;BME280;32064;49.310;8.646;2023-03-14T09:21:13;98577.78;;;16.22;63.76
19736;BME280;32064;49.310;8.646;2023-03-14T09:23:39;98576.81;;;16.08;64.65
19736;BME280;32064;49.310;8.646;2023-03-14T09:26:05;98584.88;;;16.00;65.03
19736;BME280;32064;49.310;8.646;2023-03-14T09:28:31;98580.63;;;15.84;66.26
19736;BME280;32064;49.310;8.646;2023-03-14T09:30:56;98585.88;;;15.63;66.04
19736;BME280;32064;49.310;8.646;2023-03-14T09:33:23;98569.63;;;15.87;65.89
19736;BME280;32064;49.310;8.646;2023-03-14T09:35:49;98576.00;;;16.08;65.76
19736;BME280;32064;49.310;8.646;2023-03-14T09:38:14;98570.56;;;16.37;63.89
19736;BME280;32064;49.310;8.646;2023-03-14T09:40:41;98570.81;;;16.21;65.54
19736;BME280;32064;49.310;8.646;2023-03-14T09:43:10;98581.16;;;15.94;64.59
19736;BME280;32064;49.310;8.646;2023-03-14T09:45:39;98563.09;;;16.05;65.50
19736;BME280;32064;49.310;8.646;2023-03-14T09:48:08;98572.75;;;16.12;64.64
19736;BME280;32064;49.310;8.646;2023-03-14T09:50:40;98563.22;;;15.97;65.04
19736;BME280;32064;49.310;8.646;2023-03-14T09:53:12;98560.56;;;16.18;65.25
19736;BME280;32064;49.310;8.646;2023-03-14T09:55:41;98565.69;;;16.41;65.13
19736;BME280;32064;49.310;8.646;2023-03-14T09:58:13;98564.19;;;16.53;63.52
19736;BME280;32064;49.310;8.646;2023-03-14T10:00:39;98569.41;;;16.47;64.32
19736;BME280;32064;49.310;8.646;2023-03-14T10:05:36;98560.13;;;16.36;63.97
19736;BME280;32064;49.310;8.646;2023-03-14T10:08:01;98551.41;;;16.21;65.13
19736;BME280;32064;49.310;8.646;2023-03-14T10:10:27;98566.09;;;16.16;64.87
19736;BME280;32064;49.310;8.646;2023-03-14T10:15:35;98564.16;;;15.89;66.24
19736;BME280;32064;49.310;8.646;2023-03-14T10:18:03;98573.25;;;16.01;64.88
19736;BME280;32064;49.310;8.646;2023-03-14T10:20:37;98565.56;;;16.06;66.67
19736;BME280;32064;49.310;8.646;2023-03-14T10:25:58;98578.00;;;16.06;67.35
19736;BME280;32064;49.310;8.646;2023-03-14T10:28:46;98581.00;;;15.81;67.82
19736;BME280;32064;49.310;8.646;2023-03-14T10:31:12;98576.03;;;15.93;67.73
19736;BME280;32064;49.310;8.646;2023-03-14T10:33:38;98575.31;;;15.84;68.13
19736;BME280;32064;49.310;8.646;2023-03-14T10:36:23;98570.69;;;15.71;68.65
19736;BME280;32064;49.310;8.646;2023-03-14T10:38:57;98577.00;;;15.56;68.10
19736;BME280;32064;49.310;8.646;2023-03-14T10:41:31;98575.63;;;15.60;68.23
19736;BME280;32064;49.310;8.646;2023-03-14T10:43:59;98575.00;;;15.58;68.36
19736;BME280;32064;49.310;8.646;2023-03-14T10:46:26;98573.97;;;15.59;68.56
19736;BME280;32064;49.310;8.646;2023-03-14T10:48:55;98578.81;;;15.55;69.28
19736;BME280;32064;49.310;8.646;2023-03-14T10:51:28;98569.34;;;15.46;69.82
19736;BME280;32064;49.310;8.646;2023-03-14T10:56:26;98567.41;;;15.40;69.66
19736;BME280;32064;49.310;8.646;2023-03-14T10:58:55;98564.94;;;15.38;69.42
19736;BME280;32064;49.310;8.646;2023-03-14T11:06:51;98575.72;;;15.22;71.04
19736;BME280;32064;49.310;8.646;2023-03-14T11:09:28;98592.53;;;15.14;71.53
19736;BME280;32064;49.310;8.646;2023-03-14T11:12:03;98588.13;;;14.92;72.00
19736;BME280;32064;49.310;8.646;2023-03-14T11:14:39;98595.09;;;14.93;71.80
19736;BME280;32064;49.310;8.646;2023-03-14T11:17:20;98576.78;;;14.68;72.84
19736;BME280;32064;49.310;8.646;2023-03-14T11:23:02;98598.06;;;14.52;75.15
19736;BME280;32064;49.310;8.646;2023-03-14T11:28:17;98601.56;;;14.52;73.88
19736;BME280;32064;49.310;8.646;2023-03-14T11:30:53;98605.34;;;14.50;74.43
19736;BME280;32064;49.310;8.646;2023-03-14T11:33:38;98610.34;;;14.45;74.90
19736;BME280;32064;49.310;8.646;2023-03-14T11:36:06;98618.44;;;14.43;74.63
19736;BME280;32064;49.310;8.646;2023-03-14T11:38:43;98619.34;;;14.35;75.58
19736;BME280;32064;49.310;8.646;2023-03-14T11:41:17;98621.09;;;14.43;75.46
19736;BME280;32064;49.310;8.646;2023-03-14T11:43:47;98632.38;;;14.37;75.54
19736;BME280;32064;49.310;8.646;2023-03-14T11:46:18;98629.63;;;14.30;76.37
19736;BME280;32064;49.310;8.646;2023-03-14T11:49:13;98647.59;;;14.35;76.05
19736;BME280;32064;49.310;8.646;2023-03-14T11:51:42;98653.78;;;14.27;75.72
19736;BME280;32064;49.310;8.646;2023-03-14T11:54:39;98680.00;;;14.06;75.25
19736;BME280;32064;49.310;8.646;2023-03-14T11:57:14;98686.63;;;14.10;74.16
19736;BME280;32064;49.310;8.646;2023-03-14T11:59:51;98694.69;;;14.17;73.97
19736;BME280;32064;49.310;8.646;2023-03-14T12:13:30;98746.25;;;14.12;71.34
19736;BME280;32064;49.310;8.646;2023-03-14T12:16:04;98761.50;;;14.02;70.62
19736;BME280;32064;49.310;8.646;2023-03-14T12:18:34;98773.56;;;14.05;70.84
19736;BME280;32064;49.310;8.646;2023-03-14T12:21:06;98781.53;;;13.97;70.44
19736;BME280;32064;49.310;8.646;2023-03-14T12:23:43;98796.41;;;13.89;70.86
19736;BME280;32064;49.310;8.646;2023-03-14T12:26:13;98811.31;;;13.82;69.70
19736;BME280;32064;49.310;8.646;2023-03-14T12:28:49;98813.28;;;13.80;69.05
19736;BME280;32064;49.310;8.646;2023-03-14T12:34:04;98843.03;;;13.82;69.47
19736;BME280;32064;49.310;8.646;2023-03-14T12:36:58;98855.56;;;13.88;68.92
19736;BME280;32064;49.310;8.646;2023-03-14T12:40:17;98849.81;;;13.77;68.65
19736;BME280;32064;49.310;8.646;2023-03-14T12:50:20;98908.22;;;13.33;68.49
19736;BME280;32064;49.310;8.646;2023-03-14T12:55:29;98918.44;;;13.19;67.62
19736;BME280;32064;49.310;8.646;2023-03-14T13:00:38;98938.03;;;13.09;66.21
19736;BME280;32064;49.310;8.646;2023-03-14T13:03:20;98945.81;;;13.18;65.51
19736;BME280;32064;49.310;8.646;2023-03-14T13:05:59;98942.59;;;13.41;63.79
19736;BME280;32064;49.310;8.646;2023-03-14T13:10:59;98970.06;;;14.54;62.27
19736;BME280;32064;49.310;8.646;2023-03-14T13:13:27;98968.38;;;14.70;60.97
19736;BME280;32064;49.310;8.646;2023-03-14T13:15:57;98978.97;;;14.70;59.33
19736;BME280;32064;49.310;8.646;2023-03-14T13:18:38;98989.03;;;14.66;58.98
19736;BME280;32064;49.310;8.646;2023-03-14T13:21:11;99000.97;;;14.62;59.95
19736;BME280;32064;49.310;8.646;2023-03-14T13:23:38;99011.88;;;14.51;59.64
19736;BME280;32064;49.310;8.646;2023-03-14T13:26:11;99014.38;;;14.36;59.63
19736;BME280;32064;49.310;8.646;2023-03-14T13:28:38;99019.00;;;14.42;59.43
19736;BME280;32064;49.310;8.646;2023-03-14T13:31:04;99014.38;;;14.44;59.28
19736;BME280;32064;49.310;8.646;2023-03-14T13:33:32;99020.34;;;14.38;58.59
19736;BME280;32064;49.310;8.646;2023-03-14T13:36:01;99036.53;;;14.35;59.09
19736;BME280;32064;49.310;8.646;2023-03-14T13:38:32;99037.69;;;14.16;58.17
19736;BME280;32064;49.310;8.646;2023-03-14T13:41:00;99055.03;;;13.94;57.21
19736;BME280;32064;49.310;8.646;2023-03-14T13:43:34;99062.25;;;13.84;56.30
19736;BME280;32064;49.310;8.646;2023-03-14T13:46:06;99068.38;;;13.76;54.11
19736;BME280;32064;49.310;8.646;2023-03-14T13:48:43;99072.31;;;13.72;55.80
19736;BME280;32064;49.310;8.646;2023-03-14T13:51:12;99089.00;;;13.73;55.70
19736;BME280;32064;49.310;8.646;2023-03-14T13:53:49;99085.53;;;13.72;54.61
19736;BME280;32064;49.310;8.646;2023-03-14T13:56:17;99099.91;;;13.78;54.75
19736;BME280;32064;49.310;8.646;2023-03-14T13:58:43;99114.31;;;13.83;54.63
19736;BME280;32064;49.310;8.646;2023-03-14T14:01:30;99112.38;;;14.02;52.63
19736;BME280;32064;49.310;8.646;2023-03-14T14:04:02;99108.94;;;14.26;53.22